Time;durP1;ratioP1;P1;durP2;ratioP2;P2;SDS_P1;SDS_P2;PMS_P1;PMS_P2;Temp;Humidity;BMP_temperature;BMP_pressure;BME280_temperature;BME280_humidity;BME280_pressure;Samples;Min_cycle;Max_cycle;Signal;HPM_P1;HPM_P2
2021/09/13 00:01:07;;;;;;;22.90;10.17;;;;;;;14.24;71.45;100383.25;125219;1102;104153;-80
2021/09/13 00:03:39;;;;;;;21.07;9.97;;;;;;;14.23;70.59;100378.83;125174;1102;104172;-79
2021/09/13 00:06:11;;;;;;;20.87;10.13;;;;;;;14.20;70.75;100383.20;125218;1102;105479;-80
2021/09/13 00:08:42;;;;;;;22.00;9.47;;;;;;;14.19;71.55;100384.08;125214;1102;104322;-80
2021/09/13 00:11:12;;;;;;;20.50;9.23;;;;;;;14.15;70.95;100382.23;125248;1102;104631;-79
2021/09/13 00:13:45;;;;;;;20.03;10.27;;;;;;;14.15;71.46;100382.23;125189;1102;104184;-80
2021/09/13 00:16:17;;;;;;;20.63;10.07;;;;;;;14.14;70.87;100379.56;125169;1102;104204;-81
2021/09/13 00:18:48;;;;;;;20.33;9.80;;;;;;;14.14;71.66;100384.84;125214;1103;104280;-80
2021/09/13 00:21:20;;;;;;;22.70;9.97;;;;;;;14.10;71.51;100381.27;125194;1102;104159;-80
2021/09/13 00:23:52;;;;;;;19.97;9.90;;;;;;;14.09;71.46;100375.95;125235;1102;104204;-81
2021/09/13 00:26:23;;;;;;;21.23;9.77;;;;;;;14.07;71.67;100375.02;125198;1102;104191;-78
2021/09/13 00:28:56;;;;;;;21.87;9.63;;;;;;;14.05;71.22;100382.02;125207;1100;104373;-81
2021/09/13 00:31:29;;;;;;;20.10;9.57;;;;;;;13.99;70.72;100375.77;125197;1102;104248;-79
2021/09/13 00:34:03;;;;;;;21.73;9.43;;;;;;;13.97;71.70;100380.11;125315;1102;104178;-80
2021/09/13 00:36:40;;;;;;;20.53;10.07;;;;;;;13.96;71.25;100375.71;125273;1102;104139;-80
2021/09/13 00:39:12;;;;;;;19.73;9.17;;;;;;;13.93;71.53;100386.20;125250;1102;104137;-81
2021/09/13 00:41:48;;;;;;;20.20;9.43;;;;;;;13.90;71.54;100377.31;125310;1102;104274;-80
2021/09/13 00:44:22;;;;;;;21.53;10.20;;;;;;;13.89;71.62;100384.34;125184;1102;104150;-81
2021/09/13 00:46:56;;;;;;;21.13;9.93;;;;;;;13.88;71.66;100390.47;125200;1101;105506;-81
2021/09/13 00:49:27;;;;;;;19.90;9.70;;;;;;;13.87;71.33;100380.80;125177;1102;104171;-80
2021/09/13 00:52:00;;;;;;;21.13;9.50;;;;;;;13.85;71.58;100379.86;125224;1102;104252;-80
2021/09/13 00:54:34;;;;;;;18.37;9.40;;;;;;;13.82;71.42;100375.43;125281;1102;104220;-80
2021/09/13 00:57:05;;;;;;;21.13;10.20;;;;;;;13.81;72.00;100378.04;125208;1102;104319;-79
2021/09/13 00:59:36;;;;;;;19.30;9.10;;;;;;;13.79;71.76;100378.00;125033;1102;104191;-81
2021/09/13 01:02:08;;;;;;;20.40;9.97;;;;;;;13.78;71.72;100381.48;125013;1102;104383;-80
2021/09/13 01:04:40;;;;;;;21.30;9.67;;;;;;;13.78;71.55;100381.48;125620;1102;104471;-79
2021/09/13 01:07:10;;;;;;;21.87;9.53;;;;;;;13.78;71.67;100383.25;125289;1102;104306;-78
2021/09/13 01:09:42;;;;;;;19.77;9.50;;;;;;;13.78;71.96;100386.77;125261;1102;104409;-80
2021/09/13 01:12:12;;;;;;;21.23;9.80;;;;;;;13.79;71.89;100385.00;125269;1102;104158;-79
2021/09/13 01:14:44;;;;;;;18.83;9.00;;;;;;;13.80;71.87;100386.80;125166;1102;104169;-80
2021/09/13 01:17:15;;;;;;;19.83;9.63;;;;;;;13.79;71.52;100388.55;125041;1102;104158;-79
2021/09/13 01:19:47;;;;;;;21.03;9.83;;;;;;;13.78;72.31;100386.77;125263;1102;104338;-78
2021/09/13 01:22:20;;;;;;;20.67;10.43;;;;;;;13.77;71.77;100384.97;125002;1102;104140;-79
2021/09/13 01:25:02;;;;;;;23.73;9.77;;;;;;;13.75;71.94;100388.45;125215;1103;104469;-79
2021/09/13 01:27:34;;;;;;;20.63;9.67;;;;;;;13.73;71.41;100388.42;125113;1102;104249;-80
2021/09/13 01:30:09;;;;;;;18.87;9.50;;;;;;;13.70;71.51;100384.81;125253;1102;104146;-80
2021/09/13 01:32:40;;;;;;;20.82;9.85;;;;;;;13.67;72.21;100385.66;125236;1102;104159;-80
2021/09/13 01:35:11;;;;;;;21.53;9.80;;;;;;;13.62;71.68;100380.28;125223;1102;104181;-80
2021/09/13 01:37:43;;;;;;;21.83;9.43;;;;;;;13.60;72.10;100378.46;125185;1102;104191;-79
2021/09/13 01:40:19;;;;;;;23.90;9.73;;;;;;;13.59;71.94;100382.86;125211;1102;104597;-80
2021/09/13 01:43:05;;;;;;;21.60;9.00;;;;;;;13.59;72.15;100374.95;125239;1102;104281;-80
2021/09/13 01:45:36;;;;;;;22.97;9.73;;;;;;;13.58;72.44;100381.06;125189;1102;104303;-80
2021/09/13 01:48:08;;;;;;;21.73;10.23;;;;;;;13.58;71.63;100374.91;125208;1102;104184;-80
2021/09/13 01:50:40;;;;;;;22.20;9.83;;;;;;;13.57;72.14;100374.03;125241;1102;104169;-81
2021/09/13 01:53:13;;;;;;;21.73;9.40;;;;;;;13.57;72.21;100381.95;125272;1102;104150;-81
2021/09/13 01:55:45;;;;;;;21.53;10.37;;;;;;;13.55;71.86;100375.72;125172;1102;104270;-80
2021/09/13 01:58:19;;;;;;;17.90;9.37;;;;;;;13.56;72.04;100379.27;125104;1102;104366;-79
2021/09/13 02:00:50;;;;;;;21.42;9.23;;;;;;;13.53;72.14;100376.57;125165;1102;104334;-78
2021/09/13 02:03:20;;;;;;;20.63;9.67;;;;;;;13.50;72.17;100373.86;125172;1102;104243;-80
2021/09/13 02:05:56;;;;;;;19.12;9.93;;;;;;;13.47;72.31;100375.56;125304;1102;104285;-81
2021/09/13 02:08:43;;;;;;;26.43;10.93;;;;;;;13.45;72.19;100374.64;125154;1102;104300;-81
2021/09/13 02:11:14;;;;;;;21.90;9.47;;;;;;;13.45;72.85;100376.41;125207;1100;104251;-80
2021/09/13 02:13:47;;;;;;;21.33;10.30;;;;;;;13.43;72.36;100372.82;125224;1102;104191;-80
2021/09/13 02:16:18;;;;;;;20.57;9.90;;;;;;;13.42;72.06;100371.06;125100;1102;104153;-80
2021/09/13 02:18:48;;;;;;;21.57;9.97;;;;;;;13.40;72.49;100365.76;125252;1102;104322;-80
2021/09/13 02:21:19;;;;;;;23.00;10.07;;;;;;;13.40;72.74;100376.30;125215;1102;104391;-82
2021/09/13 02:23:51;;;;;;;19.43;9.27;;;;;;;13.37;72.03;100368.33;125263;1101;104407;-80
2021/09/13 02:26:22;;;;;;;21.57;10.30;;;;;;;13.35;72.16;100374.41;125163;1102;104753;-80
2021/09/13 02:28:55;;;;;;;22.63;9.67;;;;;;;13.33;72.70;100370.82;125210;1102;104213;-80
2021/09/13 02:31:26;;;;;;;22.03;10.40;;;;;;;13.31;72.34;100371.66;125282;1102;104159;-80
2021/09/13 02:33:58;;;;;;;18.27;9.17;;;;;;;13.30;72.24;100367.24;125293;1102;104187;-81
2021/09/13 02:36:30;;;;;;;23.53;10.07;;;;;;;13.30;72.58;100363.73;125174;1102;104149;-80
2021/09/13 02:39:04;;;;;;;20.72;9.90;;;;;;;13.26;72.91;100375.95;125203;1102;104186;-80
2021/09/13 02:41:35;;;;;;;20.00;10.35;;;;;;;13.22;72.82;100374.09;125218;1102;104143;-81
2021/09/13 02:44:06;;;;;;;21.93;10.27;;;;;;;13.17;73.14;100377.50;125199;1102;104287;-80
2021/09/13 02:46:37;;;;;;;20.60;10.00;;;;;;;13.15;72.91;100382.73;125133;1102;104146;-81
2021/09/13 02:49:08;;;;;;;21.73;10.23;;;;;;;13.12;72.94;100382.66;125168;1102;104345;-79
2021/09/13 02:51:39;;;;;;;19.57;9.83;;;;;;;13.09;73.39;100383.47;125283;1102;104168;-80
2021/09/13 02:54:11;;;;;;;23.47;10.20;;;;;;;13.09;73.53;100382.59;125271;1102;104149;-81
2021/09/13 02:56:42;;;;;;;25.57;10.33;;;;;;;13.09;72.80;100377.31;125178;1102;104188;-80
2021/09/13 02:59:13;;;;;;;21.37;9.73;;;;;;;13.08;72.65;100386.06;126247;1099;102831;-80
2021/09/13 03:01:44;;;;;;;24.40;10.23;;;;;;;13.09;73.03;100378.20;126300;1099;104195;-81
2021/09/13 03:04:15;;;;;;;25.30;9.93;;;;;;;13.09;72.74;100382.59;126364;1098;104226;-80
2021/09/13 03:06:46;;;;;;;20.00;9.33;;;;;;;13.09;73.03;100372.92;126291;1099;104198;-80
2021/09/13 03:09:16;;;;;;;20.70;9.93;;;;;;;13.09;72.85;100377.31;126186;1099;104210;-81
2021/09/13 03:11:47;;;;;;;23.80;10.33;;;;;;;13.08;73.15;100380.79;126347;1099;104192;-79
2021/09/13 03:14:18;;;;;;;20.97;10.23;;;;;;;13.04;73.43;100381.56;126241;1099;104210;-79
2021/09/13 03:16:51;;;;;;;20.00;10.70;;;;;;;13.02;73.40;100376.25;126307;1099;104152;-79
2021/09/13 03:19:22;;;;;;;20.67;9.43;;;;;;;12.99;73.68;100386.72;126308;1098;104150;-79
2021/09/13 03:21:53;;;;;;;22.27;10.40;;;;;;;12.96;73.10;100381.38;126336;1099;104217;-80
2021/09/13 03:24:24;;;;;;;22.97;10.67;;;;;;;12.93;73.67;100381.30;126353;1099;104246;-80
2021/09/13 03:26:55;;;;;;;21.90;10.33;;;;;;;12.91;73.55;100386.53;126306;1098;104249;-78
2021/09/13 03:29:26;;;;;;;24.37;9.97;;;;;;;12.89;73.73;100385.62;126315;1099;104309;-79
2021/09/13 03:31:57;;;;;;;21.40;10.50;;;;;;;12.87;73.52;100389.05;126307;1098;104268;-80
2021/09/13 03:34:28;;;;;;;23.13;10.20;;;;;;;12.85;73.80;100386.38;126339;1099;104217;-79
2021/09/13 03:37:02;;;;;;;21.53;11.03;;;;;;;12.82;74.04;100394.20;126316;1099;104392;-79
2021/09/13 03:39:37;;;;;;;23.17;10.13;;;;;;;12.79;74.01;100399.39;126286;1097;105470;-78
2021/09/13 03:42:08;;;;;;;23.87;10.57;;;;;;;12.75;73.87;100405.45;126275;1099;104166;-79
2021/09/13 03:44:39;;;;;;;20.90;10.00;;;;;;;12.70;73.69;100405.34;126323;1099;104192;-79
2021/09/13 03:47:29;;;;;;;23.40;10.57;;;;;;;12.67;73.56;100409.61;126364;1099;104253;-80
2021/09/13 03:49:59;;;;;;;23.10;10.23;;;;;;;12.63;73.92;100403.39;126262;1099;104325;-79
2021/09/13 03:52:32;;;;;;;22.03;10.47;;;;;;;12.61;73.75;100412.12;126311;1099;104150;-80
2021/09/13 03:55:03;;;;;;;;;;;;;;;12.57;74.03;100405.86;126351;1099;104166;-79
2021/09/13 03:57:34;;;;;;;23.33;10.50;;;;;;;12.54;74.29;100398.80;126325;1099;104285;-79
2021/09/13 04:00:06;;;;;;;24.60;10.10;;;;;;;12.55;74.73;100402.31;126332;1099;104107;-78
2021/09/13 04:02:46;;;;;;;23.90;9.70;;;;;;;12.54;74.11;100398.80;126349;1099;104172;-79
2021/09/13 04:05:21;;;;;;;22.20;10.37;;;;;;;12.57;74.60;100406.77;126309;1099;104137;-79
2021/09/13 04:08:12;;;;;;;24.33;10.07;;;;;;;12.59;74.58;100404.19;126322;1099;104219;-79
2021/09/13 04:11:18;;;;;;;21.07;10.00;;;;;;;12.61;74.67;100401.59;126281;1099;104249;-79
2021/09/13 04:14:05;;;;;;;20.92;9.73;;;;;;;12.65;74.28;100400.80;126370;1099;104207;-79
2021/09/13 04:16:40;;;;;;;25.80;10.13;;;;;;;12.68;74.41;100403.51;125403;1099;104173;-78
2021/09/13 04:19:18;;;;;;;21.37;8.90;;;;;;;12.71;74.71;100403.59;126174;1099;104254;-78
2021/09/13 04:22:09;;;;;;;21.47;10.20;;;;;;;12.74;74.68;100406.30;126255;1097;104134;-78
2021/09/13 04:25:15;;;;;;;24.20;10.43;;;;;;;12.75;74.83;100402.83;126300;1099;104139;-78
2021/09/13 04:28:07;;;;;;;18.53;9.97;;;;;;;12.77;74.35;100401.11;126337;1099;104223;-78
2021/09/13 04:30:55;;;;;;;21.33;10.10;;;;;;;12.82;74.66;100409.13;126102;1098;104252;-76
2021/09/13 04:33:46;;;;;;;23.10;10.87;;;;;;;12.85;74.24;100404.81;126066;1099;104300;-79
2021/09/13 04:36:39;;;;;;;20.40;9.70;;;;;;;12.90;74.53;100404.92;126139;1099;104136;-79
2021/09/13 04:39:26;;;;;;;22.30;10.43;;;;;;;12.94;74.49;100401.53;126105;1099;104264;-79
2021/09/13 04:42:11;;;;;;;20.03;10.30;;;;;;;12.97;74.05;100393.70;126372;1099;104245;-79
2021/09/13 04:45:02;;;;;;;24.80;10.37;;;;;;;13.01;74.22;100410.46;126313;1099;104172;-80
2021/09/13 04:47:45;;;;;;;23.83;11.10;;;;;;;13.03;74.56;100406.14;126312;1098;104169;-80
2021/09/13 04:50:42;;;;;;;23.30;10.97;;;;;;;13.06;74.44;100411.48;126240;1099;104149;-78
2021/09/13 04:53:37;;;;;;;23.90;11.07;;;;;;;13.10;74.01;100408.05;126327;1099;104216;-79
2021/09/13 04:56:12;;;;;;;24.93;11.67;;;;;;;13.14;74.45;100407.28;126287;1099;104155;-79
2021/09/13 04:58:46;;;;;;;28.83;11.17;;;;;;;13.16;74.27;100416.10;126222;1099;104275;-80
2021/09/13 05:01:17;;;;;;;23.27;11.00;;;;;;;13.20;74.44;100407.42;126237;1099;104146;-78
2021/09/13 05:03:49;;;;;;;22.53;11.60;;;;;;;13.22;74.37;100412.73;126287;1099;104251;-78
2021/09/13 05:06:23;;;;;;;25.03;11.20;;;;;;;13.26;73.76;100407.58;126291;1099;104178;-79
2021/09/13 05:09:01;;;;;;;22.10;10.03;;;;;;;13.31;73.55;100405.05;126310;1099;104236;-80
2021/09/13 05:11:37;;;;;;;22.87;11.30;;;;;;;13.37;73.97;100410.49;126157;1099;104230;-78
2021/09/13 05:14:08;;;;;;;26.53;11.00;;;;;;;13.44;73.82;100398.33;126118;1099;104140;-78
2021/09/13 05:16:40;;;;;;;24.43;11.50;;;;;;;13.49;73.80;100399.31;126278;1099;104188;-78
2021/09/13 05:19:14;;;;;;;24.13;11.00;;;;;;;13.57;73.79;100399.48;126176;1099;104203;-78
2021/09/13 05:21:51;;;;;;;24.67;10.97;;;;;;;13.63;74.13;100391.70;126179;1099;104232;-77
2021/09/13 05:24:25;;;;;;;21.43;10.90;;;;;;;13.68;73.84;100395.36;126087;1099;104238;-77
2021/09/13 05:27:06;;;;;;;25.30;10.97;;;;;;;13.73;73.89;100395.42;125975;1099;104269;-77
2021/09/13 05:29:44;;;;;;;23.33;10.87;;;;;;;13.80;73.77;100392.95;126057;1099;104261;-78
2021/09/13 05:32:19;;;;;;;24.00;11.27;;;;;;;13.88;73.21;100398.38;126161;1099;104166;-78
2021/09/13 05:34:53;;;;;;;25.20;10.87;;;;;;;13.94;73.62;100385.31;126125;1098;104257;-78
2021/09/13 05:37:30;;;;;;;26.93;11.07;;;;;;;14.02;73.48;100394.30;126029;1098;104134;-77
2021/09/13 05:40:06;;;;;;;22.33;11.20;;;;;;;14.11;73.05;100396.21;125994;1099;104162;-77
2021/09/13 05:42:40;;;;;;;24.43;10.47;;;;;;;14.20;73.25;100395.52;126018;1098;104177;-77
2021/09/13 05:45:18;;;;;;;23.73;10.40;;;;;;;14.28;72.26;100395.66;126017;1098;104181;-76
2021/09/13 05:47:51;;;;;;;22.57;10.23;;;;;;;14.36;72.19;100401.96;126093;1099;104169;-76
2021/09/13 05:50:24;;;;;;;27.23;11.00;;;;;;;14.46;72.04;100403.02;126143;1099;104238;-77
2021/09/13 05:52:59;;;;;;;20.50;9.90;;;;;;;14.53;72.95;100399.63;126040;1099;104198;-77
2021/09/13 05:55:34;;;;;;;25.37;10.93;;;;;;;14.60;72.53;100391.01;126080;1099;104178;-78
2021/09/13 05:58:08;;;;;;;20.93;10.20;;;;;;;14.69;72.83;100404.38;126021;1099;104341;-77
2021/09/13 06:00:43;;;;;;;21.53;10.43;;;;;;;14.78;71.90;100392.17;126109;1099;104223;-76
2021/09/13 06:03:16;;;;;;;24.17;10.57;;;;;;;14.86;72.73;100386.14;126002;1099;104361;-76
2021/09/13 06:06:06;;;;;;;24.27;10.80;;;;;;;14.97;71.62;100388.95;126038;1099;104146;-76
2021/09/13 06:08:42;;;;;;;20.30;10.25;;;;;;;15.06;72.18;100394.39;126050;1098;105272;-76
2021/09/13 06:11:17;;;;;;;24.60;11.15;;;;;;;15.16;72.09;100397.17;126042;1099;104150;-76
2021/09/13 06:13:59;;;;;;;26.07;11.00;;;;;;;15.26;71.86;100399.10;126201;1099;104146;-78
2021/09/13 06:16:38;;;;;;;25.50;10.57;;;;;;;15.38;71.75;100393.09;126025;1099;104137;-79
2021/09/13 06:19:15;;;;;;;22.00;10.97;;;;;;;15.51;71.25;100399.46;125978;1099;104226;-78
2021/09/13 06:21:51;;;;;;;22.48;10.30;;;;;;;15.61;71.23;100394.32;126039;1099;104158;-79
2021/09/13 06:24:32;;;;;;;23.23;10.40;;;;;;;15.73;71.19;100393.58;125924;1099;104286;-79
2021/09/13 06:27:13;;;;;;;23.70;10.63;;;;;;;15.84;71.14;100399.04;125952;1099;104207;-77
2021/09/13 06:29:51;;;;;;;22.07;10.63;;;;;;;15.94;70.41;100398.30;126018;1099;104278;-77
2021/09/13 06:32:25;;;;;;;21.25;10.00;;;;;;;16.08;71.00;100401.11;125912;1098;104139;-78
2021/09/13 06:34:58;;;;;;;22.73;10.27;;;;;;;16.21;70.59;100393.30;125909;1099;104328;-79
2021/09/13 06:37:46;;;;;;;27.37;11.40;;;;;;;16.34;70.34;100395.20;125903;1099;104184;-80
2021/09/13 06:40:21;;;;;;;26.80;10.97;;;;;;;16.48;70.17;100393.56;126182;1099;104168;-78
2021/09/13 06:42:53;;;;;;;27.30;11.20;;;;;;;16.63;69.94;100397.26;125982;1099;104185;-80
2021/09/13 06:45:28;;;;;;;24.17;10.87;;;;;;;16.78;69.86;100394.75;126153;1099;104348;-79
2021/09/13 06:48:06;;;;;;;22.37;10.13;;;;;;;16.95;69.24;100396.67;126221;1099;104156;-78
2021/09/13 06:50:40;;;;;;;24.20;11.03;;;;;;;17.13;69.44;100394.16;126291;1097;104634;-77
2021/09/13 06:53:14;;;;;;;25.73;10.30;;;;;;;17.31;69.35;100392.50;125412;1099;104172;-79
2021/09/13 06:55:46;;;;;;;21.73;10.43;;;;;;;17.47;68.28;100399.69;126240;1099;104264;-77
2021/09/13 06:58:19;;;;;;;22.07;10.73;;;;;;;17.66;68.69;100400.67;126109;1099;104290;-78
2021/09/13 07:00:52;;;;;;;26.70;10.73;;;;;;;17.85;68.22;100406.06;125989;1099;104304;-78
2021/09/13 07:03:24;;;;;;;23.32;10.65;;;;;;;18.05;68.47;100401.75;125944;1099;104205;-79
2021/09/13 07:05:57;;;;;;;22.60;10.77;;;;;;;18.24;67.05;100404.47;126201;1099;104264;-78
2021/09/13 07:08:32;;;;;;;24.30;10.40;;;;;;;18.44;66.38;100405.39;126221;1099;104246;-78
2021/09/13 07:11:05;;;;;;;22.70;10.30;;;;;;;18.66;67.26;100410.74;126121;1099;104315;-78
2021/09/13 07:13:39;;;;;;;26.10;11.20;;;;;;;18.85;66.25;100409.02;125979;1099;104161;-77
2021/09/13 07:16:14;;;;;;;21.37;9.77;;;;;;;19.04;66.23;100407.23;126084;1099;104137;-78
2021/09/13 07:18:51;;;;;;;21.80;10.50;;;;;;;19.23;65.35;100402.80;126048;1099;104168;-79
2021/09/13 07:21:23;;;;;;;23.67;11.00;;;;;;;19.39;65.62;100401.87;126184;1099;104332;-78
2021/09/13 07:23:56;;;;;;;24.03;10.80;;;;;;;19.58;65.58;100401.83;125974;1099;104239;-78
2021/09/13 07:26:33;;;;;;;24.17;10.20;;;;;;;19.74;65.23;100408.89;126148;1099;104264;-77
2021/09/13 07:29:05;;;;;;;25.20;10.50;;;;;;;19.90;65.80;100406.20;125924;1099;104168;-78
2021/09/13 07:31:40;;;;;;;23.20;10.57;;;;;;;20.08;65.06;100403.43;125947;1099;104252;-78
2021/09/13 07:34:16;;;;;;;27.70;10.57;;;;;;;20.28;64.41;100403.33;126055;1099;104248;-78
2021/09/13 07:36:51;;;;;;;25.50;10.17;;;;;;;20.48;64.03;100403.20;126127;1099;104338;-78
2021/09/13 07:39:24;;;;;;;25.97;11.10;;;;;;;20.68;63.12;100402.23;126164;1099;104165;-76
2021/09/13 07:42:01;;;;;;;23.43;10.60;;;;;;;20.86;62.61;100398.52;126243;1099;104143;-78
2021/09/13 07:44:40;;;;;;;22.70;10.67;;;;;;;21.00;62.30;100398.41;125992;1099;104406;-78
2021/09/13 07:47:12;;;;;;;27.45;10.18;;;;;;;21.09;62.68;100402.78;125134;1099;104322;-80
2021/09/13 07:49:46;;;;;;;24.27;10.95;;;;;;;21.21;61.60;100405.34;125796;1099;104370;-79
2021/09/13 07:52:19;;;;;;;24.40;10.43;;;;;;;21.41;62.40;100399.80;125905;1098;104149;-81
2021/09/13 07:54:58;;;;;;;24.47;10.90;;;;;;;21.63;61.37;100397.81;125329;1099;102851;-79
2021/09/13 07:57:33;;;;;;;26.47;10.17;;;;;;;21.70;61.36;100403.95;126165;1098;104619;-79
2021/09/13 08:00:09;;;;;;;26.10;11.43;;;;;;;21.81;61.12;100412.71;125344;1099;104789;-77
2021/09/13 08:02:53;;;;;;;22.03;10.10;;;;;;;21.96;59.58;100410.78;125874;1099;104361;-77
2021/09/13 08:05:27;;;;;;;21.80;9.83;;;;;;;22.12;60.31;100409.66;125592;1099;104201;-77
2021/09/13 08:08:00;;;;;;;25.55;11.08;;;;;;;22.25;59.37;100410.37;125394;1099;104293;-77
2021/09/13 08:10:33;;;;;;;26.50;11.07;;;;;;;22.40;59.25;100407.52;125234;1099;104171;-76
2021/09/13 08:13:05;;;;;;;;;;;;;;;22.54;58.96;100409.11;125184;1099;104361;-76
2021/09/13 08:15:39;;;;;;;25.07;10.60;;;;;;;22.67;59.31;100409.80;125188;1099;104418;-78
2021/09/13 08:18:14;;;;;;;24.57;9.70;;;;;;;22.78;58.86;100403.39;126071;1099;104377;-78
2021/09/13 08:20:50;;;;;;;21.83;9.70;;;;;;;22.85;58.51;100408.64;125328;1099;104229;-76
2021/09/13 08:23:25;;;;;;;20.30;10.00;;;;;;;22.91;58.20;100412.08;125899;1099;104287;-77
2021/09/13 08:25:57;;;;;;;22.27;10.07;;;;;;;22.92;58.23;100402.25;125447;1099;104389;-77
2021/09/13 08:28:32;;;;;;;19.87;9.55;;;;;;;22.96;58.19;100407.53;125109;1102;104341;-77
2021/09/13 08:31:06;;;;;;;21.47;9.87;;;;;;;23.07;58.00;100409.16;125206;1102;104370;-76
2021/09/13 08:33:41;;;;;;;21.93;9.70;;;;;;;23.20;57.77;100407.17;125219;1102;104226;-78
2021/09/13 08:36:16;;;;;;;21.20;9.27;;;;;;;23.32;57.42;100399.79;125294;1099;104426;-78
2021/09/13 08:38:48;;;;;;;23.50;10.00;;;;;;;23.49;56.75;100403.95;125236;1102;104349;-78
2021/09/13 08:41:21;;;;;;;22.93;9.83;;;;;;;23.62;56.56;100405.50;125204;1102;104211;-78
2021/09/13 08:43:55;;;;;;;;;;;;;;;23.69;53.92;100399.09;125361;1099;104242;-80
2021/09/13 08:46:42;;;;;;;21.53;9.57;;;;;;;23.81;55.80;100394.38;126056;1099;104226;-78
2021/09/13 08:49:29;;;;;;;27.63;10.13;;;;;;;23.90;53.97;100396.91;125996;1098;104329;-76
2021/09/13 08:52:05;;;;;;;20.80;9.73;;;;;;;24.02;53.73;100393.97;126113;1099;104325;-78
2021/09/13 08:54:46;;;;;;;20.10;9.85;;;;;;;24.10;52.33;100390.25;125356;1099;104246;-77
2021/09/13 08:57:31;;;;;;;24.40;9.97;;;;;;;24.19;52.21;100387.37;126080;1099;104248;-77
2021/09/13 09:00:06;;;;;;;24.33;10.47;;;;;;;24.29;51.72;100388.03;125272;1099;104194;-78
2021/09/13 09:02:43;;;;;;;20.77;10.47;;;;;;;24.35;50.84;100394.13;125212;1102;104232;-77
2021/09/13 09:05:17;;;;;;;23.87;10.00;;;;;;;24.40;50.91;100397.61;125266;1102;104382;-76
2021/09/13 09:07:54;;;;;;;25.20;10.10;;;;;;;24.49;49.49;100384.89;125232;1099;108170;-76
2021/09/13 09:10:29;;;;;;;20.57;9.57;;;;;;;24.53;49.73;100383.91;125153;1099;104338;-76
2021/09/13 09:13:08;;;;;;;18.20;9.07;;;;;;;24.60;49.62;100392.72;125075;1102;104329;-76
2021/09/13 09:15:58;;;;;;;18.60;8.97;;;;;;;24.70;48.93;100388.91;125184;1102;104435;-77
2021/09/13 09:18:42;;;;;;;17.57;8.83;;;;;;;24.74;47.84;100386.11;125133;1102;118303;-78
2021/09/13 09:21:31;;;;;;;21.15;7.85;;;;;;;24.78;46.34;100381.54;125178;1102;104201;-78
2021/09/13 09:24:07;;;;;;;18.93;8.40;;;;;;;24.79;42.87;100385.09;125195;1102;104146;-77
2021/09/13 09:26:39;;;;;;;18.23;7.57;;;;;;;24.83;44.54;100379.61;125181;1099;104214;-77
2021/09/13 09:29:30;;;;;;;16.00;7.80;;;;;;;24.90;44.77;100378.55;125283;1102;104255;-79
2021/09/13 09:32:05;;;;;;;19.80;8.50;;;;;;;24.98;43.89;100377.45;125283;1102;104414;-77
2021/09/13 09:34:39;;;;;;;17.23;7.97;;;;;;;25.04;44.47;100379.98;125129;1102;104184;-76
2021/09/13 09:37:15;;;;;;;14.33;7.30;;;;;;;25.09;43.47;100381.63;125150;1102;104329;-77
2021/09/13 09:39:55;;;;;;;16.93;7.83;;;;;;;25.16;43.35;100376.10;126019;1099;104341;-77
2021/09/13 09:42:33;;;;;;;15.40;7.90;;;;;;;25.22;44.30;100375.94;125168;1102;104406;-79
2021/09/13 09:45:24;;;;;;;15.70;7.77;;;;;;;25.25;43.21;100371.36;125617;1099;104255;-79
2021/09/13 09:48:11;;;;;;;17.27;7.60;;;;;;;25.30;42.25;100366.77;125281;1099;104146;-79
2021/09/13 09:50:46;;;;;;;13.83;7.70;;;;;;;25.33;42.99;100373.00;126138;1099;104146;-80
2021/09/13 09:53:28;;;;;;;15.93;7.40;;;;;;;25.36;42.44;100363.04;126088;1099;104300;-79
2021/09/13 09:56:16;;;;;;;16.63;7.43;;;;;;;25.39;42.94;100371.02;126090;1099;104223;-79
2021/09/13 09:59:00;;;;;;;15.23;7.17;;;;;;;25.44;41.31;100369.07;125939;1099;104172;-81
2021/09/13 10:01:38;;;;;;;17.17;7.83;;;;;;;25.46;41.23;100364.56;126078;1099;104155;-78
2021/09/13 10:04:22;;;;;;;17.93;8.33;;;;;;;25.51;40.93;100366.21;125985;1099;104178;-81
2021/09/13 10:06:57;;;;;;;17.93;7.77;;;;;;;25.56;41.25;100369.67;125522;1099;104166;-79
2021/09/13 10:09:30;;;;;;;17.53;7.97;;;;;;;25.53;40.30;100362.57;125252;1099;104251;-79
2021/09/13 10:12:05;;;;;;;14.98;7.58;;;;;;;25.56;40.43;100364.30;125903;1099;104197;-79
2021/09/13 10:14:37;;;;;;;18.77;7.53;;;;;;;25.55;39.63;100362.53;125799;1099;104168;-79
2021/09/13 10:17:11;;;;;;;16.80;7.47;;;;;;;25.57;39.53;100358.88;125822;1099;104200;-79
2021/09/13 10:19:45;;;;;;;15.70;7.17;;;;;;;25.53;37.84;100357.20;125871;1100;109376;-78
2021/09/13 10:22:16;;;;;;;16.83;7.57;;;;;;;25.53;38.99;100341.08;126012;1099;104159;-79
2021/09/13 10:24:51;;;;;;;16.60;7.47;;;;;;;25.63;38.35;100347.96;126178;1099;104139;-78
2021/09/13 10:27:23;;;;;;;17.60;7.50;;;;;;;25.68;39.07;100350.52;125951;1099;104245;-78
2021/09/13 10:33:13;;;;;;;16.07;8.00;;;;;;;25.84;38.33;100353.62;125099;1102;104197;-76
2021/09/13 10:35:58;;;;;;;18.57;7.80;;;;;;;25.89;38.36;100350.80;125033;1102;104656;-76
2021/09/13 10:38:47;;;;;;;13.40;7.40;;;;;;;25.93;37.15;100350.66;125114;1102;104163;-76
2021/09/13 10:41:45;;;;;;;17.23;7.53;;;;;;;25.93;37.63;100339.00;125116;1102;104278;-77
2021/09/13 10:44:24;;;;;;;17.83;8.20;;;;;;;25.97;37.67;100344.27;124855;1103;108605;-78
2021/09/13 10:47:08;;;;;;;19.53;8.00;;;;;;;26.05;36.86;100343.17;124835;1102;104779;-78
2021/09/13 10:49:39;;;;;;;18.77;7.87;;;;;;;26.04;37.26;100338.71;124920;1102;104149;-76
2021/09/13 10:52:32;;;;;;;17.17;7.87;;;;;;;26.05;36.95;100335.98;125083;1101;104136;-79
2021/09/13 10:55:26;;;;;;;14.77;7.47;;;;;;;26.11;37.17;100335.78;125072;1102;119209;-79
2021/09/13 10:58:09;;;;;;;17.47;8.07;;;;;;;26.13;36.95;100333.05;125054;1102;104383;-79
2021/09/13 11:00:54;;;;;;;16.43;8.20;;;;;;;26.12;36.87;100342.06;124999;1102;104197;-76
2021/09/13 11:03:40;;;;;;;18.63;8.27;;;;;;;26.13;36.84;100333.95;125154;1102;104201;-79
2021/09/13 11:06:38;;;;;;;17.77;8.20;;;;;;;26.15;36.47;100332.08;125147;1102;104159;-79
2021/09/13 11:09:22;;;;;;;17.47;7.90;;;;;;;26.24;36.56;100340.78;124995;1105;104120;-75
2021/09/13 11:12:07;;;;;;;17.50;8.23;;;;;;;26.23;36.14;100341.73;124880;1105;104297;-77
2021/09/13 11:14:37;;;;;;;21.20;8.33;;;;;;;26.27;36.20;100333.52;124880;1105;104300;-77
2021/09/13 11:17:10;;;;;;;13.87;7.47;;;;;;;26.28;36.78;100340.63;124961;1105;104326;-77
2021/09/13 11:19:43;;;;;;;16.60;7.20;;;;;;;26.30;36.04;100329.83;124968;1105;104238;-76
2021/09/13 11:22:16;;;;;;;17.73;7.92;;;;;;;26.32;36.17;100326.17;124915;1105;104495;-77
2021/09/13 11:24:48;;;;;;;18.40;7.90;;;;;;;26.33;36.54;100324.34;124933;1105;104428;-77
2021/09/13 11:27:19;;;;;;;;;;;;;;;26.34;35.42;100321.61;124956;1105;104306;-76
2021/09/13 11:29:52;;;;;;;17.33;8.03;;;;;;;26.37;36.31;100315.27;124941;1105;104159;-78
2021/09/13 11:33:01;;;;;;;18.33;8.50;;;;;;;26.40;35.68;100311.57;125027;1105;104156;-77
2021/09/13 11:35:33;;;;;;;16.03;7.70;;;;;;;26.37;35.51;100310.75;124922;1106;104299;-78
2021/09/13 11:38:07;;;;;;;18.20;7.97;;;;;;;26.34;35.52;100305.47;124932;1105;104363;-77
2021/09/13 11:40:46;;;;;;;19.13;8.33;;;;;;;26.35;35.34;100314.41;124988;1104;104361;-78
2021/09/13 11:43:17;;;;;;;16.55;8.20;;;;;;;26.37;35.46;100310.75;124948;1105;104245;-78